createdAt,value
2024-04-30T00:01:10.982Z,76.67
2024-04-30T00:03:41.964Z,77.09
2024-04-30T00:06:10.224Z,78.63
2024-04-30T00:08:38.246Z,79.69
2024-04-30T00:11:05.896Z,79.48
2024-04-30T00:13:33.461Z,79.78
2024-04-30T00:16:04.651Z,80.11
2024-04-30T00:18:32.258Z,81.22
2024-04-30T00:20:59.871Z,80.86
2024-04-30T00:23:27.504Z,77.46
2024-04-30T00:25:55.000Z,77.51
2024-04-30T00:28:22.571Z,77.64
2024-04-30T00:30:50.110Z,77.78
2024-04-30T00:33:18.047Z,77.22
2024-04-30T00:35:45.542Z,77.70
2024-04-30T00:38:13.195Z,78.54
2024-04-30T00:40:42.111Z,78.29
2024-04-30T00:43:09.846Z,77.55
2024-04-30T00:45:37.394Z,77.36
2024-04-30T00:48:06.298Z,76.42
2024-04-30T00:50:34.696Z,76.89
2024-04-30T00:53:02.932Z,77.21
2024-04-30T00:55:30.664Z,77.63
2024-04-30T00:57:58.363Z,77.07
2024-04-30T01:00:26.050Z,77.19
2024-04-30T01:02:53.650Z,77.13
2024-04-30T01:05:21.137Z,76.60
2024-04-30T01:07:48.705Z,75.93
2024-04-30T01:10:18.051Z,75.75
2024-04-30T01:12:45.722Z,75.85
2024-04-30T01:15:14.147Z,76.30
2024-04-30T01:17:41.807Z,77.03
2024-04-30T01:20:09.862Z,77.54
2024-04-30T01:22:41.730Z,78.39
2024-04-30T01:25:09.490Z,78.74
2024-04-30T01:27:36.990Z,78.98
2024-04-30T01:30:04.952Z,79.21
2024-04-30T01:32:32.756Z,77.63
2024-04-30T01:35:00.476Z,76.71
2024-04-30T01:37:28.240Z,76.63
2024-04-30T01:39:55.848Z,75.10
2024-04-30T01:42:23.453Z,74.66
2024-04-30T01:44:51.053Z,74.19
2024-04-30T01:47:18.569Z,73.81
2024-04-30T01:49:46.121Z,73.36
2024-04-30T01:52:13.734Z,73.75
2024-04-30T01:54:41.321Z,73.73
2024-04-30T01:57:08.855Z,74.02
2024-04-30T01:59:36.464Z,74.12
2024-04-30T02:02:04.234Z,73.83
2024-04-30T02:04:38.741Z,74.59
2024-04-30T02:07:13.684Z,74.29
2024-04-30T02:09:41.186Z,74.51
2024-04-30T02:12:08.767Z,74.61
2024-04-30T02:14:36.294Z,74.62
2024-04-30T02:17:03.989Z,74.56
2024-04-30T02:19:31.714Z,74.37
2024-04-30T02:21:59.397Z,74.11
2024-04-30T02:24:27.097Z,74.43
2024-04-30T02:26:54.704Z,74.07
2024-04-30T02:29:22.717Z,74.22
2024-04-30T02:32:08.933Z,73.80
2024-04-30T02:34:36.504Z,74.01
2024-04-30T02:37:04.275Z,74.10
2024-04-30T02:39:31.954Z,74.19
2024-04-30T02:41:59.461Z,74.93
2024-04-30T02:44:27.083Z,75.30
2024-04-30T02:46:54.618Z,76.23
2024-04-30T02:49:22.210Z,76.24
2024-04-30T02:51:49.742Z,76.67
2024-04-30T02:54:17.258Z,77.34
2024-04-30T02:56:44.846Z,76.03
2024-04-30T02:59:12.516Z,75.94
2024-04-30T03:01:40.089Z,75.62
2024-04-30T03:04:07.967Z,75.06
2024-04-30T03:06:38.839Z,75.29
2024-04-30T03:09:07.438Z,74.86
2024-04-30T03:11:34.957Z,75.09
2024-04-30T03:14:02.610Z,75.20
2024-04-30T03:16:30.239Z,76.07
2024-04-30T03:18:57.889Z,76.69
2024-04-30T03:21:25.420Z,77.25
2024-04-30T03:23:52.993Z,77.28
2024-04-30T03:26:20.541Z,77.18
2024-04-30T03:28:48.147Z,77.51
2024-04-30T03:31:17.413Z,78.01
2024-04-30T03:33:45.212Z,78.72
2024-04-30T03:36:12.791Z,79.20
2024-04-30T03:38:43.400Z,79.02
2024-04-30T03:41:13.301Z,79.39
2024-04-30T03:43:40.962Z,80.17
2024-04-30T03:46:15.378Z,79.67
2024-04-30T03:48:43.407Z,80.06
2024-04-30T03:51:10.960Z,79.37
2024-04-30T03:53:38.520Z,78.93
2024-04-30T03:56:06.317Z,78.17
2024-04-30T03:58:34.043Z,76.91
2024-04-30T04:01:01.883Z,76.06
2024-04-30T04:03:29.600Z,74.54
2024-04-30T04:05:57.493Z,73.47
2024-04-30T04:08:25.170Z,71.84
2024-04-30T04:11:11.644Z,70.00
2024-04-30T04:13:57.902Z,69.00
2024-04-30T04:16:25.538Z,67.23
2024-04-30T04:18:53.075Z,65.39
2024-04-30T04:21:23.464Z,63.79
2024-04-30T04:23:51.829Z,62.64
2024-04-30T04:26:19.385Z,61.41
2024-04-30T04:28:46.993Z,60.33
2024-04-30T04:31:14.568Z,59.29
2024-04-30T04:33:42.160Z,58.27
2024-04-30T04:36:18.642Z,56.90
2024-04-30T04:38:46.231Z,56.39
2024-04-30T04:41:13.801Z,55.65
2024-04-30T04:43:41.441Z,54.25
2024-04-30T04:46:08.999Z,54.11
2024-04-30T04:48:36.643Z,53.38
2024-04-30T04:51:05.982Z,52.85
2024-04-30T04:53:33.573Z,52.85
2024-04-30T04:56:01.126Z,51.62
2024-04-30T04:58:28.771Z,51.50
2024-04-30T05:00:56.448Z,51.28
2024-04-30T05:03:24.150Z,51.90
2024-04-30T05:05:51.750Z,51.77
2024-04-30T05:08:19.447Z,50.85
2024-04-30T05:10:47.084Z,50.32
2024-04-30T05:13:14.826Z,49.17
2024-04-30T05:15:42.371Z,49.81
2024-04-30T05:18:10.090Z,51.43
2024-04-30T05:20:37.635Z,52.76
2024-04-30T05:23:05.400Z,52.08
2024-04-30T05:25:32.936Z,52.39
2024-04-30T05:28:04.258Z,52.36
2024-04-30T05:30:31.973Z,51.02
2024-04-30T05:35:27.032Z,51.17
2024-04-30T05:37:54.738Z,51.12
2024-04-30T05:40:22.388Z,51.28
2024-04-30T05:42:49.980Z,50.32
2024-04-30T05:45:17.631Z,51.06
2024-04-30T05:47:45.256Z,51.44
2024-04-30T05:50:13.797Z,50.93
2024-04-30T05:52:41.368Z,50.31
2024-04-30T05:55:09.432Z,50.04
2024-04-30T05:57:38.641Z,51.91
2024-04-30T06:00:07.273Z,52.53
2024-04-30T06:02:35.103Z,51.99
2024-04-30T06:05:03.146Z,52.09
2024-04-30T06:07:30.861Z,51.80
2024-04-30T06:10:01.448Z,52.15
2024-04-30T06:12:29.144Z,52.07
2024-04-30T06:14:56.695Z,51.62
2024-04-30T06:17:24.382Z,50.86
2024-04-30T06:19:53.922Z,51.06
2024-04-30T06:22:22.356Z,51.19
2024-04-30T06:24:50.258Z,50.09
2024-04-30T06:27:17.992Z,50.53
2024-04-30T06:29:46.397Z,51.12
2024-04-30T06:32:14.285Z,52.03
2024-04-30T06:34:43.508Z,49.79
2024-04-30T06:37:11.629Z,50.19
2024-04-30T06:39:39.360Z,49.61
2024-04-30T06:42:07.146Z,51.51
2024-04-30T06:44:35.055Z,51.68
2024-04-30T06:47:02.661Z,50.23
2024-04-30T06:49:30.180Z,49.75
2024-04-30T06:51:57.783Z,50.14
2024-04-30T06:54:25.390Z,50.48
2024-04-30T06:56:53.000Z,49.61
2024-04-30T06:59:20.600Z,48.68
2024-04-30T07:01:48.291Z,49.15
2024-04-30T07:04:15.969Z,48.10
2024-04-30T07:06:44.152Z,49.03
2024-04-30T07:09:11.779Z,48.47
2024-04-30T07:11:39.460Z,49.24
2024-04-30T07:14:07.116Z,48.71
2024-04-30T07:16:48.513Z,48.23
2024-04-30T07:19:23.808Z,46.74
2024-04-30T07:21:51.458Z,47.75
2024-04-30T07:24:19.068Z,46.12
2024-04-30T07:26:46.681Z,50.03
2024-04-30T07:29:14.340Z,45.42
2024-04-30T07:31:41.927Z,45.90
2024-04-30T07:34:09.665Z,45.66
2024-04-30T07:36:37.194Z,47.03
2024-04-30T07:39:05.212Z,46.30
2024-04-30T07:41:32.759Z,46.31
2024-04-30T07:44:00.475Z,45.62
2024-04-30T07:46:28.190Z,47.00
2024-04-30T07:48:55.879Z,46.20
2024-04-30T07:51:23.445Z,46.97
2024-04-30T07:53:51.073Z,47.70
2024-04-30T07:56:18.622Z,48.83
2024-04-30T07:58:46.362Z,47.35
2024-04-30T08:01:14.666Z,47.53
2024-04-30T08:03:43.072Z,47.74
2024-04-30T08:06:18.592Z,47.71
2024-04-30T08:08:48.607Z,45.32
2024-04-30T08:11:16.539Z,45.96
2024-04-30T08:13:45.615Z,46.37
2024-04-30T08:16:14.139Z,46.60
2024-04-30T08:18:41.836Z,46.83
2024-04-30T08:21:09.400Z,46.54
2024-04-30T08:23:37.103Z,46.13
2024-04-30T08:26:04.890Z,47.98
2024-04-30T08:28:32.464Z,46.96
2024-04-30T08:31:00.423Z,46.95
2024-04-30T08:33:28.450Z,47.87
2024-04-30T08:35:56.044Z,48.24
2024-04-30T08:38:23.743Z,46.98
2024-04-30T08:40:51.429Z,48.31
2024-04-30T08:43:19.747Z,46.41
2024-04-30T08:45:48.168Z,46.55
2024-04-30T08:48:17.722Z,46.81
2024-04-30T08:50:47.223Z,46.81
2024-04-30T08:53:17.172Z,45.70
2024-04-30T08:55:46.613Z,47.24
2024-04-30T08:58:14.515Z,46.29
2024-04-30T09:00:42.156Z,45.11
2024-04-30T09:03:10.165Z,46.34
2024-04-30T09:05:38.778Z,45.83
2024-04-30T09:08:06.720Z,45.44
2024-04-30T09:10:36.129Z,44.06
2024-04-30T09:13:04.107Z,44.98
2024-04-30T09:15:31.771Z,43.46
2024-04-30T09:18:09.534Z,44.48
2024-04-30T09:20:47.246Z,44.42
2024-04-30T09:23:25.904Z,44.19
2024-04-30T09:25:53.880Z,45.20
2024-04-30T09:28:22.232Z,45.35
2024-04-30T09:31:00.396Z,46.69
2024-04-30T09:33:29.479Z,44.63
2024-04-30T09:36:06.716Z,45.33
2024-04-30T09:38:39.765Z,46.23
2024-04-30T09:41:11.851Z,45.47
2024-04-30T09:43:41.153Z,47.30
2024-04-30T09:46:09.523Z,46.07
2024-04-30T09:48:39.983Z,45.76
2024-04-30T09:51:13.440Z,45.96
2024-04-30T09:53:42.076Z,46.02
2024-04-30T09:56:10.340Z,45.26
2024-04-30T09:58:38.680Z,46.46
2024-04-30T10:01:11.554Z,44.49
2024-04-30T10:03:41.254Z,46.79
2024-04-30T10:06:10.384Z,47.45
2024-04-30T10:08:40.756Z,45.77
2024-04-30T10:11:09.029Z,46.14
2024-04-30T10:13:48.275Z,44.53
2024-04-30T10:16:17.350Z,44.85
2024-04-30T10:18:45.574Z,45.26
2024-04-30T10:21:13.886Z,45.81
2024-04-30T10:23:45.368Z,47.98
2024-04-30T10:26:15.234Z,46.39
2024-04-30T10:28:43.142Z,46.84
2024-04-30T10:31:18.664Z,46.19
2024-04-30T10:33:46.984Z,46.07
2024-04-30T10:36:16.298Z,46.26
2024-04-30T10:38:44.198Z,45.84
2024-04-30T10:41:11.882Z,45.41
2024-04-30T10:43:39.659Z,46.65
2024-04-30T10:46:16.762Z,44.87
2024-04-30T10:48:51.764Z,46.27
2024-04-30T10:51:20.900Z,44.84
2024-04-30T10:53:49.681Z,45.65
2024-04-30T10:56:18.936Z,44.28
2024-04-30T10:58:59.278Z,44.66
2024-04-30T11:01:29.155Z,44.21
2024-04-30T11:04:12.956Z,44.71
2024-04-30T11:06:48.501Z,45.53
2024-04-30T11:09:16.682Z,45.45
2024-04-30T11:11:50.801Z,46.14
2024-04-30T11:14:25.113Z,45.22
2024-04-30T11:16:55.602Z,44.79
2024-04-30T11:19:24.112Z,43.92
2024-04-30T11:21:54.223Z,44.70
2024-04-30T11:24:21.926Z,43.26
2024-04-30T11:26:50.873Z,42.36
2024-04-30T11:31:49.604Z,41.70
2024-04-30T11:34:17.292Z,42.09
2024-04-30T11:36:45.197Z,41.49
2024-04-30T11:39:14.122Z,41.17
2024-04-30T11:41:48.805Z,42.73
2024-04-30T11:44:24.188Z,42.49
2024-04-30T11:46:51.864Z,41.26
2024-04-30T11:49:19.694Z,41.00
2024-04-30T11:51:47.308Z,41.59
2024-04-30T11:54:14.989Z,41.72
2024-04-30T11:56:42.684Z,41.28
2024-04-30T11:59:10.394Z,40.68
2024-04-30T12:01:38.126Z,40.59
2024-04-30T12:04:06.047Z,40.61
2024-04-30T12:06:36.499Z,40.52
2024-04-30T12:09:05.995Z,41.61
2024-04-30T12:11:38.790Z,40.94
2024-04-30T12:14:06.622Z,41.98
2024-04-30T12:16:34.325Z,40.74
2024-04-30T12:19:02.678Z,42.65
2024-04-30T12:21:30.372Z,41.22
2024-04-30T12:23:58.109Z,40.98
2024-04-30T12:26:25.712Z,42.00
2024-04-30T12:28:53.374Z,40.95
2024-04-30T12:31:21.035Z,40.21
2024-04-30T12:33:48.749Z,39.30
2024-04-30T12:36:16.459Z,39.15
2024-04-30T12:38:44.113Z,39.01
2024-04-30T12:41:11.810Z,39.46
2024-04-30T12:43:39.852Z,39.29
2024-04-30T12:46:07.661Z,40.46
2024-04-30T12:48:36.120Z,40.21
2024-04-30T12:51:03.938Z,38.68
2024-04-30T12:53:31.630Z,38.38
2024-04-30T12:55:59.399Z,38.39
2024-04-30T12:58:27.256Z,38.89
2024-04-30T13:00:55.177Z,40.27
2024-04-30T13:03:22.977Z,39.07
2024-04-30T13:05:51.054Z,40.08
2024-04-30T13:08:19.429Z,38.45
2024-04-30T13:10:47.091Z,38.60
2024-04-30T13:13:15.220Z,38.80
2024-04-30T13:15:42.807Z,38.90
2024-04-30T13:18:10.472Z,39.80
2024-04-30T13:20:39.651Z,39.11
2024-04-30T13:23:07.408Z,39.65
2024-04-30T13:25:35.049Z,38.34
2024-04-30T13:28:02.826Z,39.16
2024-04-30T13:30:30.390Z,39.60
2024-04-30T13:32:58.225Z,39.14
2024-04-30T13:35:25.911Z,38.90
2024-04-30T13:37:53.732Z,39.91
2024-04-30T13:40:21.449Z,39.63
2024-04-30T13:42:49.416Z,40.10
2024-04-30T13:45:17.122Z,37.87
2024-04-30T13:47:45.191Z,39.19
2024-04-30T13:50:12.914Z,39.17
2024-04-30T13:52:40.588Z,40.20
2024-04-30T13:55:08.364Z,39.04
2024-04-30T13:57:36.126Z,40.00
2024-04-30T14:00:06.663Z,39.71
2024-04-30T14:02:38.522Z,39.61
2024-04-30T14:05:06.717Z,38.58
2024-04-30T14:07:34.398Z,39.91
2024-04-30T14:10:02.415Z,38.75
2024-04-30T14:12:30.030Z,39.95
2024-04-30T14:14:57.854Z,39.38
2024-04-30T14:17:25.541Z,38.53
2024-04-30T14:19:53.363Z,39.62
2024-04-30T14:22:21.116Z,40.19
2024-04-30T14:24:48.769Z,39.35
2024-04-30T14:27:16.365Z,41.13
2024-04-30T14:29:45.603Z,40.24
2024-04-30T14:32:13.301Z,40.44
2024-04-30T14:34:41.155Z,39.99
2024-04-30T14:37:08.886Z,40.07
2024-04-30T14:39:36.654Z,40.15
2024-04-30T14:42:04.346Z,38.87
2024-04-30T14:44:32.030Z,39.60
2024-04-30T14:46:59.628Z,38.99
2024-04-30T14:49:27.260Z,40.00
2024-04-30T14:51:54.851Z,40.25
2024-04-30T14:54:22.628Z,39.53
2024-04-30T14:56:52.514Z,39.16
2024-04-30T14:59:23.138Z,39.37
2024-04-30T15:04:18.562Z,39.73
2024-04-30T15:06:46.305Z,39.27
2024-04-30T15:09:14.090Z,39.09
2024-04-30T15:11:41.701Z,39.85
2024-04-30T15:14:09.470Z,39.70
2024-04-30T15:16:43.885Z,39.97
2024-04-30T15:19:11.843Z,39.46
2024-04-30T15:21:43.665Z,38.93
2024-04-30T15:24:11.370Z,39.41
2024-04-30T15:26:39.628Z,38.93
2024-04-30T15:29:07.540Z,39.24
2024-04-30T15:31:35.185Z,39.20
2024-04-30T15:34:02.876Z,39.16
2024-04-30T15:36:30.471Z,40.17
2024-04-30T15:38:58.155Z,40.48
2024-04-30T15:41:25.747Z,39.72
2024-04-30T15:43:53.576Z,39.97
2024-04-30T15:46:21.282Z,39.59
2024-04-30T15:48:51.207Z,39.48
2024-04-30T15:51:19.532Z,39.22
2024-04-30T15:53:47.187Z,39.10
2024-04-30T15:56:17.747Z,39.30
2024-04-30T15:58:47.656Z,39.37
2024-04-30T16:01:16.082Z,40.10
2024-04-30T16:03:45.139Z,40.05
2024-04-30T16:06:14.424Z,39.67
2024-04-30T16:08:42.276Z,40.31
2024-04-30T16:11:11.618Z,39.27
2024-04-30T16:13:41.771Z,40.02
2024-04-30T16:16:16.433Z,39.95
2024-04-30T16:18:48.151Z,40.61
2024-04-30T16:21:17.074Z,39.92
2024-04-30T16:23:45.111Z,40.51
2024-04-30T16:26:12.905Z,40.54
2024-04-30T16:28:44.532Z,40.40
2024-04-30T16:31:15.361Z,40.71
2024-04-30T16:33:43.927Z,41.11
2024-04-30T16:36:21.348Z,40.46
2024-04-30T16:38:50.707Z,41.90
2024-04-30T16:41:18.468Z,41.77
2024-04-30T16:43:46.187Z,42.08
2024-04-30T16:46:13.826Z,42.78
2024-04-30T16:48:42.461Z,42.75
2024-04-30T16:51:14.445Z,42.90
2024-04-30T16:53:43.636Z,42.95
2024-04-30T16:56:12.170Z,43.36
2024-04-30T16:58:39.882Z,43.55
2024-04-30T17:01:07.757Z,43.38
2024-04-30T17:03:40.630Z,43.27
2024-04-30T17:06:12.345Z,44.07
2024-04-30T17:08:41.294Z,43.74
2024-04-30T17:11:11.057Z,43.39
2024-04-30T17:13:45.585Z,43.93
2024-04-30T17:16:23.720Z,44.70
2024-04-30T17:18:52.057Z,45.94
2024-04-30T17:21:23.003Z,46.45
2024-04-30T17:23:51.133Z,45.64
2024-04-30T17:26:26.546Z,45.89
2024-04-30T17:28:55.470Z,46.43
2024-04-30T17:31:23.364Z,46.66
2024-04-30T17:33:56.291Z,47.23
2024-04-30T17:36:24.348Z,45.79
2024-04-30T17:38:52.167Z,45.85
2024-04-30T17:41:27.679Z,46.63
2024-04-30T17:43:55.605Z,46.59
2024-04-30T17:46:26.244Z,46.78
2024-04-30T17:48:56.506Z,46.81
2024-04-30T17:51:28.612Z,46.71
2024-04-30T17:53:56.311Z,47.06
2024-04-30T17:56:23.918Z,47.58
2024-04-30T17:58:51.757Z,47.63
2024-04-30T18:01:20.050Z,47.71
2024-04-30T18:03:54.900Z,47.02
2024-04-30T18:06:23.426Z,47.44
2024-04-30T18:08:57.873Z,47.33
2024-04-30T18:11:26.752Z,48.00
2024-04-30T18:13:55.184Z,47.62
2024-04-30T18:16:23.170Z,48.09
2024-04-30T18:18:51.522Z,48.72
2024-04-30T18:21:20.450Z,48.56
2024-04-30T18:23:49.231Z,48.70
2024-04-30T18:26:16.954Z,48.89
2024-04-30T18:28:51.283Z,48.76
2024-04-30T18:31:19.491Z,49.14
2024-04-30T18:33:47.393Z,49.35
2024-04-30T18:36:15.307Z,49.19
2024-04-30T18:38:44.513Z,48.90
2024-04-30T18:41:24.214Z,49.10
2024-04-30T18:43:55.944Z,49.45
2024-04-30T18:46:23.615Z,49.79
2024-04-30T18:48:52.064Z,49.75
2024-04-30T18:51:20.527Z,49.64
2024-04-30T18:53:48.513Z,50.13
2024-04-30T18:56:18.933Z,50.15
2024-04-30T18:58:47.820Z,50.60
2024-04-30T19:01:18.768Z,49.79
2024-04-30T19:03:49.474Z,50.39
2024-04-30T19:06:21.592Z,49.96
2024-04-30T19:08:50.743Z,51.04
2024-04-30T19:11:18.822Z,50.44
2024-04-30T19:13:46.529Z,50.92
2024-04-30T19:16:14.752Z,50.57
2024-04-30T19:18:44.195Z,51.16
2024-04-30T19:21:12.903Z,51.08
2024-04-30T19:23:40.670Z,51.51
2024-04-30T19:26:14.424Z,51.44
2024-04-30T19:28:43.225Z,52.12
2024-04-30T19:31:17.388Z,52.35
2024-04-30T19:33:45.267Z,52.31
2024-04-30T19:36:20.548Z,52.00
2024-04-30T19:38:48.728Z,52.06
2024-04-30T19:41:17.345Z,52.00
2024-04-30T19:43:45.099Z,52.16
2024-04-30T19:46:14.801Z,51.82
2024-04-30T19:48:43.207Z,51.74
2024-04-30T19:51:10.946Z,51.81
2024-04-30T19:53:38.690Z,52.15
2024-04-30T19:56:06.769Z,52.11
2024-04-30T19:58:34.409Z,51.84
2024-04-30T20:01:02.005Z,52.17
2024-04-30T20:03:29.803Z,51.92
2024-04-30T20:05:57.701Z,52.15
2024-04-30T20:08:25.530Z,51.84
2024-04-30T20:10:53.156Z,51.82
2024-04-30T20:13:24.341Z,52.64
2024-04-30T20:15:52.075Z,51.45
2024-04-30T20:18:19.812Z,51.67
2024-04-30T20:20:47.610Z,51.63
2024-04-30T20:23:15.225Z,52.12
2024-04-30T20:25:43.335Z,51.91
2024-04-30T20:28:10.945Z,52.12
2024-04-30T20:30:38.657Z,52.35
2024-04-30T20:33:06.327Z,52.75
2024-04-30T20:35:34.116Z,52.63
2024-04-30T20:38:01.647Z,51.96
2024-04-30T20:40:29.498Z,52.61
2024-04-30T20:42:57.131Z,52.55
2024-04-30T20:45:24.873Z,52.79
2024-04-30T20:47:52.674Z,52.94
2024-04-30T20:50:20.451Z,53.57
2024-04-30T20:52:48.018Z,54.17
2024-04-30T20:55:15.669Z,53.81
2024-04-30T20:57:44.299Z,53.91
2024-04-30T21:00:12.729Z,53.96
2024-04-30T21:02:40.359Z,54.02
2024-04-30T21:05:08.071Z,54.18
2024-04-30T21:07:35.789Z,54.19
2024-04-30T21:10:03.702Z,54.52
2024-04-30T21:12:31.346Z,54.34
2024-04-30T21:14:58.971Z,54.26
2024-04-30T21:17:26.544Z,54.47
2024-04-30T21:19:57.382Z,54.58
2024-04-30T21:22:26.189Z,54.68
2024-04-30T21:24:53.798Z,54.62
2024-04-30T21:27:21.588Z,54.45
2024-04-30T21:29:49.216Z,54.70
2024-04-30T21:32:16.857Z,54.98
2024-04-30T21:34:45.038Z,55.22
2024-04-30T21:37:12.632Z,54.97
2024-04-30T21:39:40.334Z,55.24
2024-04-30T21:42:08.527Z,55.39
2024-04-30T21:44:36.080Z,55.57
2024-04-30T21:47:03.892Z,55.43
2024-04-30T21:49:31.518Z,55.56
2024-04-30T21:51:59.375Z,55.71
2024-04-30T21:54:27.091Z,56.13
2024-04-30T21:56:54.713Z,56.06
2024-04-30T21:59:22.365Z,55.90
2024-04-30T22:01:50.061Z,55.68
2024-04-30T22:04:20.406Z,55.61
2024-04-30T22:06:48.434Z,55.98
2024-04-30T22:09:15.987Z,56.06
2024-04-30T22:11:43.742Z,55.96
2024-04-30T22:14:11.289Z,56.15
2024-04-30T22:16:38.879Z,56.62
2024-04-30T22:19:06.513Z,56.54
2024-04-30T22:21:34.261Z,56.22
2024-04-30T22:24:01.971Z,57.00
2024-04-30T22:26:29.605Z,56.92
2024-04-30T22:28:57.204Z,57.30
2024-04-30T22:31:24.890Z,57.34
2024-04-30T22:33:52.639Z,57.57
2024-04-30T22:36:20.425Z,57.79
2024-04-30T22:38:48.006Z,57.87
2024-04-30T22:41:15.588Z,57.76
2024-04-30T22:43:43.269Z,57.67
2024-04-30T22:46:14.727Z,57.67
2024-04-30T22:48:43.417Z,57.10
2024-04-30T22:51:11.088Z,57.38
2024-04-30T22:53:47.209Z,57.67
2024-04-30T22:56:18.249Z,57.43
2024-04-30T22:58:45.906Z,57.51
2024-04-30T23:01:13.820Z,57.76
2024-04-30T23:03:41.547Z,57.71
2024-04-30T23:06:09.280Z,58.30
2024-04-30T23:08:39.788Z,58.49
2024-04-30T23:11:07.513Z,58.87
2024-04-30T23:13:35.202Z,58.62
2024-04-30T23:16:03.400Z,59.03
2024-04-30T23:18:31.340Z,59.16
2024-04-30T23:20:59.159Z,59.02
2024-04-30T23:23:26.657Z,59.10
2024-04-30T23:25:54.370Z,59.18
2024-04-30T23:28:21.950Z,59.05
2024-04-30T23:30:49.566Z,59.31
2024-04-30T23:33:17.228Z,59.76
2024-04-30T23:35:44.874Z,59.03
2024-04-30T23:38:12.591Z,59.38
2024-04-30T23:40:40.153Z,59.38
2024-04-30T23:43:07.882Z,59.17
2024-04-30T23:45:35.679Z,59.16
2024-04-30T23:48:03.361Z,59.07
2024-04-30T23:50:31.072Z,59.07
2024-04-30T23:52:58.575Z,59.71
2024-04-30T23:55:26.130Z,59.03
2024-04-30T23:57:54.441Z,59.20
